x

Grays Reef - 40 Nm Southeast Of Savannah, Ga (41008) Wave Buoy

5:50am - Tue 27th Sep 2016 All times are EDT. -4 hours from GMT.

  • Sig Wave height 2.6ft
  • Swell Direction
  • Peak Period 5s
  • Average Period 5s
  • Wind
    9mph, 11mph gusts
  • Sea Temp 82°f
  • Air Temp 77°f
  • Sea Pressure 1012.1mb
  • Grays Reef - 40 Nm Southeast Of Savannah, Ga
  • Grays Reef - 40 Nm Southeast Of Savannah, Ga

More Historic Weather Station data

Upgrade to MSW Pro to gain access to the past 30 days of data for over 8000 Wavebouys and Weather Stations around the globe.

Join Pro

Comparision Forecast

View Surf forecast
   
Tue 09/27 5:50am 2.5ft 5s 5s 9 11 mph 1012.1mb 82f 77f
4:50am 3ft 5s 4s 7 9 mph 1012.5mb 82f 77f
3:50am 3.5ft 5s 4s 11 13 mph 1012.5mb 82f 77f
2:50am 3.5ft 5s 4s 11 16 mph 1013.6mb 82f 77f
1:50am 3.5ft 5s 4s 16 18 mph 1013.7mb 82f 77f
12:50am 3.5ft 5s 5s 16 20 mph 1014.2mb 82f 78f
Mon 09/26 11:50pm 3.5ft 5s 5s 11 13 mph 1014.7mb 82f 79f
10:50pm 3.5ft 5s 5s 20 25 mph 1014.8mb 82f 78f
9:50pm 3.5ft 5s 5s 13 18 mph 1015.2mb 82f 81f
8:50pm 4ft 6s 5s 13 16 mph 1014.9mb 82f 80f
7:50pm 3.5ft 5s 5s 13 16 mph 1014.8mb 82f 80f
6:50pm 3.5ft 5s 5s 18 20 mph 1014.4mb 82f 80f
5:50pm 4ft 6s 5s 16 20 mph 1014.1mb 82f 79f
4:50pm 3.5ft 5s 4s 16 18 mph 1014.3mb 82f 79f
3:50pm 4ft 6s  -  16 18 mph 1014.6mb 82f 79f
2:50pm 4ft 5s 4s 18 20 mph 1014.8mb 82f 79f
1:50pm 4.5ft 6s 5s 18 20 mph 1015.8mb 82f 78f
12:50pm 4.5ft 5s 5s 18 22 mph 1016.6mb 82f 79f
11:50am 4.5ft 6s 5s 18 20 mph 1017.3mb 82f 79f
10:50am 4.5ft 6s 5s 18 20 mph 1016.8mb 82f 79f
9:50am 4.5ft 5s 5s 20 25 mph 1016.7mb 82f 79f
8:50am 3.5ft 5s 5s 18 22 mph 1016.2mb 82f 78f
7:50am 3.5ft 6s 5s 16 20 mph 1016.5mb 82f 77f
6:50am 3.5ft 10s 5s 9 11 mph 1015.8mb 82f 80f
5:50am 3.5ft 10s 5s 16 18 mph 1014.7mb 82f 81f
4:50am 3.5ft 10s 5s 13 16 mph 1014.7mb 82f 81f
3:50am 3.5ft 10s 5s 13 16 mph 1015.1mb 82f 81f
2:50am 3.5ft 10s 5s 11 16 mph 1015.7mb 82f 81f
1:50am 4ft 5s 5s 13 16 mph 1016.3mb 82f 82f
12:50am 4.5ft 5s 5s 16 18 mph 1016.6mb 82f 82f
Sun 09/25 11:50pm 4.5ft 5s 5s 18 20 mph 1016.3mb 82f 81f
10:50pm 4ft 5s 5s 18 22 mph 1016.5mb 82f 82f
9:50pm 4ft 5s 5s 18 20 mph 1016.9mb 82f 82f
8:50pm 4.5ft 5s 5s 18 22 mph 1016.2mb 82f 81f
7:50pm 3.5ft 10s 4s 20 22 mph 1016mb 82f 82f
6:50pm 3.5ft 5s 4s 18 22 mph 1015.7mb 82f 82f
5:50pm 3.5ft 11s 5s 18 20 mph 1015.6mb 82f 82f
4:50pm 3.5ft 10s 5s 18 20 mph 1015.5mb 82f 81f
3:50pm 4ft 11s 5s 16 20 mph 1016mb 82f 80f
2:50pm 3.5ft 11s 5s 16 18 mph 1016.7mb 82f 80f
1:50pm 3.5ft 11s 5s 13 18 mph 1017.4mb 82f 80f
12:50pm 3.5ft 10s 5s 16 20 mph 1017.9mb 82f 81f
11:50am 3.5ft 10s 5s 18 20 mph 1018.1mb 82f 80f
10:50am 3.5ft 10s 5s 18 22 mph 1018mb 82f 80f
9:50am 3ft 11s 6s 16 18 mph 1017.6mb 82f 80f
8:50am 2.5ft 11s 7s 13 16 mph 1018mb 82f 80f
7:50am 2.5ft 11s 8s 11 16 mph 1017.2mb 82f 80f
6:50am 2.5ft 12s 8s 9
mph
1016.9mb 82f 80f
5:50am 3ft 11s 9s 7
mph
1016.4mb 82f 80f
4:50am 3.5ft 11s 9s 4
mph
1016mb 82f 80f
3:50am 3ft 11s 8s 2
mph
1016mb 82f 80f
2:50am 3.5ft 11s 8s 2 4 mph 1016.1mb 82f 80f
1:50am 3.5ft 11s 8s 4 7 mph 1016.2mb 82f 80f
12:50am 2.5ft 11s 7s 4 7 mph 1016.5mb 82f 80f
Sat 09/24 11:50pm 3ft 10s 8s 4 7 mph 1016.9mb 82f 80f
10:50pm 3ft 10s 8s 7 9 mph 1017.2mb 82f 81f
9:50pm 3ft 10s 8s 7 9 mph 1016.9mb 82f 81f
8:50pm 2.5ft 11s 7s 7 9 mph 1016.5mb 83f 81f
7:50pm 3ft 11s 8s 7 9 mph 1016mb 83f 81f
6:50pm 2.5ft 11s 7s 7 9 mph 1015.9mb 83f 81f
5:50pm 2.5ft 11s 7s 7 9 mph 1015.7mb 83f 80f
4:50pm 2.5ft 11s 7s 7 9 mph 1015.8mb 83f 80f
3:50pm 2.5ft 11s 7s 9 11 mph 1016mb 83f 80f
2:50pm 2.5ft 11s 7s 9 11 mph 1016.5mb 83f 80f
1:50pm 2.5ft 10s 6s 9 11 mph 1017.3mb 83f 79f
12:50pm 2.5ft 10s 6s 9 11 mph 1018mb 82f 79f
11:50am 2.5ft 11s 6s 9 11 mph 1018.2mb 82f 79f
10:50am 2.5ft 11s 6s 11 13 mph 1018mb 82f 79f
9:50am 2.5ft 11s 6s 11 13 mph 1017.8mb 82f 79f
8:50am 2.5ft 11s 5s 9 11 mph 1017.7mb 82f 79f
7:50am 2.5ft 11s 5s 9 11 mph 1017.1mb 82f 79f
6:50am 2.5ft 11s 5s 13 16 mph 1016.5mb 82f 79f
5:50am 3ft 11s 6s 13 16 mph 1015.9mb 82f 79f
4:50am 2.5ft 11s 6s 13 16 mph 1015.5mb 82f 79f
3:50am 2.5ft 12s 7s 13 16 mph 1015.3mb 82f 79f
2:50am 2.5ft 11s 9s 9 11 mph 1015.6mb 82f 80f
1:50am 2.5ft 11s 9s 9 11 mph 1015.8mb 82f 80f
12:50am 2.5ft 11s 9s 7 9 mph 1015.8mb 82f 81f
Fri 09/23 11:50pm 2.5ft 11s 9s 7 9 mph 1016.1mb 82f 81f
10:50pm 2.5ft 11s 9s 7
mph
1016.2mb 83f 80f
9:50pm 2.5ft 11s 9s  -  2 mph 1016mb 83f 80f
8:50pm 2.5ft 11s 10s  -  2 mph 1015.8mb 83f 80f
7:50pm 2.5ft 11s 9s 2 4 mph 1015.3mb 83f 80f
6:50pm 2.5ft 11s 8s 4 7 mph 1015.1mb 83f 80f
5:50pm 2.5ft 12s 8s 4 7 mph 1014.7mb 83f 80f
4:50pm 2.5ft 12s 6s 4 7 mph 1014.6mb 83f 80f
3:50pm 2.5ft 12s 5s 7 9 mph 1014.9mb 83f 79f
1:50pm 2.5ft 11s 6s 16 18 mph 1015.7mb 83f 78f
12:50pm 2.5ft 12s 6s 13 16 mph 1016.2mb 82f 78f
11:50am 2.5ft 11s 6s 11 13 mph 1016.7mb 82f 77f
10:50am 2.5ft 12s 5s 13 16 mph 1016.8mb 82f 77f